< < Back
Terminal Aerodrome Forecast


Current Version              Previous Versions:   1  2  3  4  5  6  7  8  9  

Terminal Aerodrome Forecast

643
FTUS42 KCAE 202300
TAFCAE
TAF
KCAE 202326Z 2100/2124 VRB03KT P6SM SCT100 SCT250
     FM211500 28005KT P6SM SKC=

Latest METAR

990
SAUS80 KWBC 211600 RRA
MTRCAE
METAR KCAE 211556Z 24005KT 10SM CLR 23/09 A2995 RMK AO2 SLP139
T02280089


USA.gov is the U.S. government's official web portal to all federal, state and local government web resources and services.